sensor_id;sensor_type;location;lat;lon;timestamp;pressure;altitude;pressure_sealevel;temperature;humidity
11099;BME280;12223;42.650;23.364;2022-08-19T00:01:40;94482.91;;;20.92;100.00
11099;BME280;12223;42.650;23.364;2022-08-19T00:04:10;94470.28;;;20.74;100.00
11099;BME280;12223;42.650;23.364;2022-08-19T00:06:39;94468.78;;;20.63;100.00
11099;BME280;12223;42.650;23.364;2022-08-19T00:09:10;94479.69;;;20.71;100.00
11099;BME280;12223;42.650;23.364;2022-08-19T00:11:38;94480.69;;;20.75;100.00
11099;BME280;12223;42.650;23.364;2022-08-19T00:14:06;94475.03;;;20.77;100.00
11099;BME280;12223;42.650;23.364;2022-08-19T00:16:35;94475.41;;;20.70;100.00
11099;BME280;12223;42.650;23.364;2022-08-19T00:19:02;94483.72;;;20.69;100.00
11099;BME280;12223;42.650;23.364;2022-08-19T00:21:29;94484.47;;;20.74;100.00
11099;BME280;12223;42.650;23.364;2022-08-19T00:23:55;94490.94;;;20.73;100.00
11099;BME280;12223;42.650;23.364;2022-08-19T00:26:25;94499.78;;;20.74;100.00
11099;BME280;12223;42.650;23.364;2022-08-19T00:28:52;94498.22;;;20.68;100.00
11099;BME280;12223;42.650;23.364;2022-08-19T00:31:19;94501.00;;;20.63;100.00
11099;BME280;12223;42.650;23.364;2022-08-19T00:33:46;94494.25;;;20.46;100.00
11099;BME280;12223;42.650;23.364;2022-08-19T00:36:13;94497.34;;;20.30;100.00
11099;BME280;12223;42.650;23.364;2022-08-19T00:38:40;94492.97;;;20.15;100.00
11099;BME280;12223;42.650;23.364;2022-08-19T00:41:09;94494.13;;;20.09;100.00
11099;BME280;12223;42.650;23.364;2022-08-19T00:43:37;94487.75;;;20.00;100.00
11099;BME280;12223;42.650;23.364;2022-08-19T00:46:05;94495.00;;;19.99;100.00
11099;BME280;12223;42.650;23.364;2022-08-19T00:48:32;94486.47;;;19.97;100.00
11099;BME280;12223;42.650;23.364;2022-08-19T00:51:00;94478.50;;;19.87;100.00
11099;BME280;12223;42.650;23.364;2022-08-19T00:53:28;94484.63;;;19.93;100.00
11099;BME280;12223;42.650;23.364;2022-08-19T00:55:58;94480.69;;;19.85;100.00
11099;BME280;12223;42.650;23.364;2022-08-19T00:58:27;94483.81;;;19.92;100.00
11099;BME280;12223;42.650;23.364;2022-08-19T01:00:56;94483.06;;;19.87;100.00
11099;BME280;12223;42.650;23.364;2022-08-19T01:03:23;94476.91;;;19.86;100.00
11099;BME280;12223;42.650;23.364;2022-08-19T01:05:51;94489.50;;;19.86;100.00
11099;BME280;12223;42.650;23.364;2022-08-19T01:08:20;94491.75;;;19.79;100.00
11099;BME280;12223;42.650;23.364;2022-08-19T01:10:51;94486.84;;;19.86;100.00
11099;BME280;12223;42.650;23.364;2022-08-19T01:13:21;94483.94;;;19.82;100.00
11099;BME280;12223;42.650;23.364;2022-08-19T01:15:52;94483.13;;;19.82;100.00
11099;BME280;12223;42.650;23.364;2022-08-19T01:18:21;94484.69;;;19.88;100.00
11099;BME280;12223;42.650;23.364;2022-08-19T01:20:48;94478.78;;;19.86;100.00
11099;BME280;12223;42.650;23.364;2022-08-19T01:23:17;94478.09;;;19.75;100.00
11099;BME280;12223;42.650;23.364;2022-08-19T01:25:46;94479.13;;;19.79;100.00
11099;BME280;12223;42.650;23.364;2022-08-19T01:28:18;94475.94;;;19.77;100.00
11099;BME280;12223;42.650;23.364;2022-08-19T01:30:46;94466.53;;;19.80;100.00
11099;BME280;12223;42.650;23.364;2022-08-19T01:33:14;94476.69;;;19.83;100.00
11099;BME280;12223;42.650;23.364;2022-08-19T01:35:41;94469.78;;;19.77;100.00
11099;BME280;12223;42.650;23.364;2022-08-19T01:38:10;94481.25;;;19.82;100.00
11099;BME280;12223;42.650;23.364;2022-08-19T01:40:46;94491.78;;;19.74;100.00
11099;BME280;12223;42.650;23.364;2022-08-19T01:43:13;94484.06;;;19.67;100.00
11099;BME280;12223;42.650;23.364;2022-08-19T01:45:40;94478.28;;;19.60;100.00
11099;BME280;12223;42.650;23.364;2022-08-19T01:48:07;94447.97;;;19.31;100.00
11099;BME280;12223;42.650;23.364;2022-08-19T01:50:35;94480.28;;;19.39;100.00
11099;BME280;12223;42.650;23.364;2022-08-19T01:53:04;94488.31;;;19.39;100.00
11099;BME280;12223;42.650;23.364;2022-08-19T01:55:32;94483.03;;;19.34;100.00
11099;BME280;12223;42.650;23.364;2022-08-19T01:58:02;94481.25;;;19.19;100.00
11099;BME280;12223;42.650;23.364;2022-08-19T02:00:32;94480.84;;;19.02;100.00
11099;BME280;12223;42.650;23.364;2022-08-19T02:02:59;94476.81;;;19.05;100.00
11099;BME280;12223;42.650;23.364;2022-08-19T02:05:26;94477.41;;;18.97;100.00
11099;BME280;12223;42.650;23.364;2022-08-19T02:07:55;94483.31;;;18.94;100.00
11099;BME280;12223;42.650;23.364;2022-08-19T02:10:22;94482.72;;;19.02;100.00
11099;BME280;12223;42.650;23.364;2022-08-19T02:12:49;94477.88;;;19.04;100.00
11099;BME280;12223;42.650;23.364;2022-08-19T02:15:18;94473.59;;;19.08;100.00
11099;BME280;12223;42.650;23.364;2022-08-19T02:17:45;94480.50;;;19.14;100.00
11099;BME280;12223;42.650;23.364;2022-08-19T02:20:12;94478.38;;;19.11;100.00
11099;BME280;12223;42.650;23.364;2022-08-19T02:22:40;94477.03;;;19.13;100.00
11099;BME280;12223;42.650;23.364;2022-08-19T02:25:08;94478.38;;;19.11;100.00
11099;BME280;12223;42.650;23.364;2022-08-19T02:27:35;94484.34;;;19.03;100.00
11099;BME280;12223;42.650;23.364;2022-08-19T02:30:04;94483.22;;;19.04;100.00
11099;BME280;12223;42.650;23.364;2022-08-19T02:32:32;94486.72;;;19.04;100.00
11099;BME280;12223;42.650;23.364;2022-08-19T02:34:59;94491.84;;;19.01;100.00
11099;BME280;12223;42.650;23.364;2022-08-19T02:37:26;94494.56;;;18.91;100.00
11099;BME280;12223;42.650;23.364;2022-08-19T02:40:11;94482.78;;;18.92;100.00
11099;BME280;12223;42.650;23.364;2022-08-19T02:42:38;94489.03;;;18.77;100.00
11099;BME280;12223;42.650;23.364;2022-08-19T02:45:06;94488.88;;;18.58;100.00
11099;BME280;12223;42.650;23.364;2022-08-19T02:47:35;94484.53;;;18.67;100.00
11099;BME280;12223;42.650;23.364;2022-08-19T02:50:03;94496.31;;;18.66;100.00
11099;BME280;12223;42.650;23.364;2022-08-19T02:52:32;94491.78;;;18.62;100.00
11099;BME280;12223;42.650;23.364;2022-08-19T02:54:59;94489.66;;;18.54;100.00
11099;BME280;12223;42.650;23.364;2022-08-19T02:57:26;94499.56;;;18.53;100.00
11099;BME280;12223;42.650;23.364;2022-08-19T02:59:53;94500.91;;;18.61;100.00
11099;BME280;12223;42.650;23.364;2022-08-19T03:02:20;94498.75;;;18.53;100.00
11099;BME280;12223;42.650;23.364;2022-08-19T03:04:48;94498.25;;;18.56;100.00
11099;BME280;12223;42.650;23.364;2022-08-19T03:07:17;94500.13;;;18.55;100.00
11099;BME280;12223;42.650;23.364;2022-08-19T03:09:44;94489.16;;;18.46;100.00
11099;BME280;12223;42.650;23.364;2022-08-19T03:12:11;94493.44;;;18.58;100.00
11099;BME280;12223;42.650;23.364;2022-08-19T03:14:38;94496.09;;;18.47;100.00
11099;BME280;12223;42.650;23.364;2022-08-19T03:17:05;94480.38;;;18.41;100.00
11099;BME280;12223;42.650;23.364;2022-08-19T03:19:32;94481.13;;;18.46;100.00
11099;BME280;12223;42.650;23.364;2022-08-19T03:22:01;94484.63;;;18.47;100.00
11099;BME280;12223;42.650;23.364;2022-08-19T03:24:29;94476.66;;;18.37;100.00
11099;BME280;12223;42.650;23.364;2022-08-19T03:26:57;94483.56;;;18.43;100.00
11099;BME280;12223;42.650;23.364;2022-08-19T03:29:24;94488.69;;;18.34;100.00
11099;BME280;12223;42.650;23.364;2022-08-19T03:31:51;94483.91;;;18.21;100.00
11099;BME280;12223;42.650;23.364;2022-08-19T03:34:22;94487.09;;;18.28;100.00
11099;BME280;12223;42.650;23.364;2022-08-19T03:36:52;94488.44;;;18.31;100.00
11099;BME280;12223;42.650;23.364;2022-08-19T03:39:21;94484.47;;;18.18;100.00
11099;BME280;12223;42.650;23.364;2022-08-19T03:41:49;94489.25;;;18.31;100.00
11099;BME280;12223;42.650;23.364;2022-08-19T03:44:19;94491.91;;;18.31;100.00
11099;BME280;12223;42.650;23.364;2022-08-19T03:46:48;94496.91;;;18.48;100.00
11099;BME280;12223;42.650;23.364;2022-08-19T03:49:16;94502.75;;;18.60;100.00
11099;BME280;12223;42.650;23.364;2022-08-19T03:51:44;94503.53;;;18.71;100.00
11099;BME280;12223;42.650;23.364;2022-08-19T03:54:13;94512.03;;;18.83;100.00
11099;BME280;12223;42.650;23.364;2022-08-19T03:56:43;94515.69;;;18.92;100.00
11099;BME280;12223;42.650;23.364;2022-08-19T03:59:15;94508.41;;;19.03;100.00
11099;BME280;12223;42.650;23.364;2022-08-19T04:01:42;94526.03;;;19.43;100.00
11099;BME280;12223;42.650;23.364;2022-08-19T04:04:09;94524.78;;;19.98;100.00
11099;BME280;12223;42.650;23.364;2022-08-19T04:06:38;94529.66;;;20.67;100.00
11099;BME280;12223;42.650;23.364;2022-08-19T04:09:08;94536.16;;;21.41;100.00
11099;BME280;12223;42.650;23.364;2022-08-19T04:11:37;94532.78;;;22.14;95.35
11099;BME280;12223;42.650;23.364;2022-08-19T04:14:09;94535.59;;;22.91;87.64
11099;BME280;12223;42.650;23.364;2022-08-19T04:16:36;94535.63;;;23.63;79.38
11099;BME280;12223;42.650;23.364;2022-08-19T04:19:04;94536.53;;;24.34;73.43
11099;BME280;12223;42.650;23.364;2022-08-19T04:21:32;94545.34;;;25.05;68.78
11099;BME280;12223;42.650;23.364;2022-08-19T04:23:59;94547.47;;;25.68;64.03
11099;BME280;12223;42.650;23.364;2022-08-19T04:26:27;94542.91;;;26.41;59.03
11099;BME280;12223;42.650;23.364;2022-08-19T04:28:57;94540.63;;;27.19;55.32
11099;BME280;12223;42.650;23.364;2022-08-19T04:31:27;94545.44;;;27.96;51.86
11099;BME280;12223;42.650;23.364;2022-08-19T04:33:55;94548.16;;;28.74;48.80
11099;BME280;12223;42.650;23.364;2022-08-19T04:36:28;94544.97;;;29.45;46.59
11099;BME280;12223;42.650;23.364;2022-08-19T04:38:56;94541.66;;;30.20;43.98
11099;BME280;12223;42.650;23.364;2022-08-19T04:41:24;94547.25;;;31.02;41.88
11099;BME280;12223;42.650;23.364;2022-08-19T04:44:19;94544.88;;;31.86;39.41
11099;BME280;12223;42.650;23.364;2022-08-19T04:46:49;94545.25;;;32.46;38.02
11099;BME280;12223;42.650;23.364;2022-08-19T04:49:19;94537.88;;;33.18;36.59
11099;BME280;12223;42.650;23.364;2022-08-19T04:51:47;94545.69;;;33.99;34.72
11099;BME280;12223;42.650;23.364;2022-08-19T04:54:14;94547.63;;;34.65;33.66
11099;BME280;12223;42.650;23.364;2022-08-19T04:56:41;94543.03;;;35.24;32.71
11099;BME280;12223;42.650;23.364;2022-08-19T04:59:09;94548.16;;;35.87;31.05
11099;BME280;12223;42.650;23.364;2022-08-19T05:01:36;94557.03;;;36.46;30.66
11099;BME280;12223;42.650;23.364;2022-08-19T05:04:06;94556.34;;;37.09;29.36
11099;BME280;12223;42.650;23.364;2022-08-19T05:06:34;94534.72;;;36.90;28.24
11099;BME280;12223;42.650;23.364;2022-08-19T05:09:03;94554.41;;;37.17;27.89
11099;BME280;12223;42.650;23.364;2022-08-19T05:11:32;94564.59;;;37.55;27.48
11099;BME280;12223;42.650;23.364;2022-08-19T05:13:59;94565.38;;;37.80;26.89
11099;BME280;12223;42.650;23.364;2022-08-19T05:16:27;94565.16;;;38.34;25.88
11099;BME280;12223;42.650;23.364;2022-08-19T05:18:54;94556.19;;;38.92;25.28
11099;BME280;12223;42.650;23.364;2022-08-19T05:21:41;94566.28;;;39.64;24.29
11099;BME280;12223;42.650;23.364;2022-08-19T05:24:27;94560.53;;;40.19;23.76
11099;BME280;12223;42.650;23.364;2022-08-19T05:26:54;94560.47;;;40.57;23.32
11099;BME280;12223;42.650;23.364;2022-08-19T05:29:25;94556.38;;;40.95;22.76
11099;BME280;12223;42.650;23.364;2022-08-19T05:31:53;94558.25;;;41.29;22.17
11099;BME280;12223;42.650;23.364;2022-08-19T05:34:22;94563.84;;;41.49;22.06
11099;BME280;12223;42.650;23.364;2022-08-19T05:36:52;94563.00;;;41.52;21.86
11099;BME280;12223;42.650;23.364;2022-08-19T05:39:24;94565.03;;;41.48;22.05
11099;BME280;12223;42.650;23.364;2022-08-19T05:41:53;94565.41;;;41.26;22.38
11099;BME280;12223;42.650;23.364;2022-08-19T05:44:23;94561.41;;;40.13;23.30
11099;BME280;12223;42.650;23.364;2022-08-19T05:46:50;94568.28;;;39.12;24.35
11099;BME280;12223;42.650;23.364;2022-08-19T05:49:20;94569.25;;;37.97;25.97
11099;BME280;12223;42.650;23.364;2022-08-19T05:51:47;94564.19;;;36.93;27.06
11099;BME280;12223;42.650;23.364;2022-08-19T05:54:16;94571.28;;;35.79;28.90
11099;BME280;12223;42.650;23.364;2022-08-19T05:56:43;94562.00;;;34.95;30.05
11099;BME280;12223;42.650;23.364;2022-08-19T05:59:14;94561.44;;;34.39;30.77
11099;BME280;12223;42.650;23.364;2022-08-19T06:05:03;94562.59;;;33.48;32.46
11099;BME280;12223;42.650;23.364;2022-08-19T06:07:31;94561.41;;;33.19;32.72
11099;BME280;12223;42.650;23.364;2022-08-19T06:09:59;94561.47;;;33.00;33.81
11099;BME280;12223;42.650;23.364;2022-08-19T06:12:26;94557.91;;;32.54;33.73
11099;BME280;12223;42.650;23.364;2022-08-19T06:14:56;94568.00;;;32.11;34.08
11099;BME280;12223;42.650;23.364;2022-08-19T06:17:22;94565.94;;;31.85;34.72
11099;BME280;12223;42.650;23.364;2022-08-19T06:19:51;94563.59;;;31.68;35.24
11099;BME280;12223;42.650;23.364;2022-08-19T06:22:17;94560.78;;;31.30;35.89
11099;BME280;12223;42.650;23.364;2022-08-19T06:24:44;94557.63;;;31.12;36.60
11099;BME280;12223;42.650;23.364;2022-08-19T06:27:12;94568.03;;;31.06;37.38
11099;BME280;12223;42.650;23.364;2022-08-19T06:29:40;94558.63;;;30.72;37.64
11099;BME280;12223;42.650;23.364;2022-08-19T06:32:08;94561.13;;;30.50;38.04
11099;BME280;12223;42.650;23.364;2022-08-19T06:34:34;94568.88;;;30.48;38.77
11099;BME280;12223;42.650;23.364;2022-08-19T06:37:02;94567.56;;;30.29;39.46
11099;BME280;12223;42.650;23.364;2022-08-19T06:39:33;94568.50;;;30.06;40.68
11099;BME280;12223;42.650;23.364;2022-08-19T06:42:02;94563.78;;;29.90;41.60
11099;BME280;12223;42.650;23.364;2022-08-19T06:44:35;94563.78;;;29.90;41.08
11099;BME280;12223;42.650;23.364;2022-08-19T06:47:03;94561.72;;;29.47;41.19
11099;BME280;12223;42.650;23.364;2022-08-19T06:49:31;94557.66;;;29.41;41.60
11099;BME280;12223;42.650;23.364;2022-08-19T06:51:58;94559.00;;;29.23;42.35
11099;BME280;12223;42.650;23.364;2022-08-19T06:54:26;94568.44;;;29.38;42.49
11099;BME280;12223;42.650;23.364;2022-08-19T06:56:53;94563.78;;;29.26;43.99
11099;BME280;12223;42.650;23.364;2022-08-19T06:59:22;94567.75;;;29.04;44.34
11099;BME280;12223;42.650;23.364;2022-08-19T07:01:56;94565.09;;;28.71;45.20
11099;BME280;12223;42.650;23.364;2022-08-19T07:04:26;94566.13;;;27.89;47.90
11099;BME280;12223;42.650;23.364;2022-08-19T07:06:58;94570.88;;;28.13;47.78
11099;BME280;12223;42.650;23.364;2022-08-19T07:09:26;94576.16;;;28.09;48.45
11099;BME280;12223;42.650;23.364;2022-08-19T07:11:54;94572.44;;;27.81;48.83
11099;BME280;12223;42.650;23.364;2022-08-19T07:14:23;94572.59;;;28.17;49.82
11099;BME280;12223;42.650;23.364;2022-08-19T07:16:54;94566.41;;;28.29;49.03
11099;BME280;12223;42.650;23.364;2022-08-19T07:19:23;94571.00;;;28.61;48.63
11099;BME280;12223;42.650;23.364;2022-08-19T07:21:51;94575.88;;;28.68;47.21
11099;BME280;12223;42.650;23.364;2022-08-19T07:24:19;94576.03;;;28.26;48.81
11099;BME280;12223;42.650;23.364;2022-08-19T07:26:50;94565.47;;;28.58;49.10
11099;BME280;12223;42.650;23.364;2022-08-19T07:29:17;94566.09;;;28.43;47.33
11099;BME280;12223;42.650;23.364;2022-08-19T07:31:44;94563.56;;;28.25;47.83
11099;BME280;12223;42.650;23.364;2022-08-19T07:34:12;94561.56;;;28.47;47.31
11099;BME280;12223;42.650;23.364;2022-08-19T07:36:40;94566.25;;;28.70;45.18
11099;BME280;12223;42.650;23.364;2022-08-19T07:39:09;94560.41;;;28.93;44.07
11099;BME280;12223;42.650;23.364;2022-08-19T07:41:37;94567.97;;;29.24;43.68
11099;BME280;12223;42.650;23.364;2022-08-19T07:44:05;94558.91;;;29.32;43.19
11099;BME280;12223;42.650;23.364;2022-08-19T07:46:33;94560.50;;;29.45;42.82
11099;BME280;12223;42.650;23.364;2022-08-19T07:49:01;94556.56;;;29.70;42.20
11099;BME280;12223;42.650;23.364;2022-08-19T07:51:29;94559.28;;;30.10;42.12
11099;BME280;12223;42.650;23.364;2022-08-19T07:53:56;94560.81;;;30.23;41.18
11099;BME280;12223;42.650;23.364;2022-08-19T07:56:23;94571.22;;;30.06;41.33
11099;BME280;12223;42.650;23.364;2022-08-19T07:58:52;94568.28;;;29.98;41.46
11099;BME280;12223;42.650;23.364;2022-08-19T08:01:21;94561.31;;;29.73;42.03
11099;BME280;12223;42.650;23.364;2022-08-19T08:03:50;94566.69;;;29.97;41.98
11099;BME280;12223;42.650;23.364;2022-08-19T08:06:36;94566.56;;;30.34;41.12
11099;BME280;12223;42.650;23.364;2022-08-19T08:09:22;94553.25;;;30.60;40.30
11099;BME280;12223;42.650;23.364;2022-08-19T08:11:52;94554.72;;;30.73;40.61
11099;BME280;12223;42.650;23.364;2022-08-19T08:14:21;94557.72;;;30.68;39.78
11099;BME280;12223;42.650;23.364;2022-08-19T08:16:49;94560.53;;;30.56;40.00
11099;BME280;12223;42.650;23.364;2022-08-19T08:19:18;94555.13;;;30.28;41.17
11099;BME280;12223;42.650;23.364;2022-08-19T08:21:48;94517.50;;;29.78;40.92
11099;BME280;12223;42.650;23.364;2022-08-19T08:24:16;94551.16;;;29.98;41.12
11099;BME280;12223;42.650;23.364;2022-08-19T08:26:43;94549.16;;;30.11;40.96
11099;BME280;12223;42.650;23.364;2022-08-19T08:29:10;94545.75;;;30.14;41.37
11099;BME280;12223;42.650;23.364;2022-08-19T08:31:38;94541.19;;;30.18;41.12
11099;BME280;12223;42.650;23.364;2022-08-19T08:34:06;94551.22;;;30.14;41.39
11099;BME280;12223;42.650;23.364;2022-08-19T08:36:36;94544.63;;;30.15;41.33
11099;BME280;12223;42.650;23.364;2022-08-19T08:39:07;94549.53;;;30.09;41.10
11099;BME280;12223;42.650;23.364;2022-08-19T08:41:40;94541.72;;;30.08;41.83
11099;BME280;12223;42.650;23.364;2022-08-19T08:44:15;94537.00;;;29.92;42.18
11099;BME280;12223;42.650;23.364;2022-08-19T08:46:47;94530.81;;;30.08;39.50
11099;BME280;12223;42.650;23.364;2022-08-19T08:49:23;94540.16;;;30.22;40.40
11099;BME280;12223;42.650;23.364;2022-08-19T08:51:57;94535.00;;;30.33;39.99
11099;BME280;12223;42.650;23.364;2022-08-19T08:54:31;94537.28;;;30.47;39.25
11099;BME280;12223;42.650;23.364;2022-08-19T08:56:59;94525.53;;;30.58;36.85
11099;BME280;12223;42.650;23.364;2022-08-19T08:59:30;94518.34;;;30.66;35.42
11099;BME280;12223;42.650;23.364;2022-08-19T09:01:59;94490.91;;;30.59;34.79
11099;BME280;12223;42.650;23.364;2022-08-19T09:04:26;94527.22;;;30.79;35.59
11099;BME280;12223;42.650;23.364;2022-08-19T09:07:02;94515.69;;;30.85;36.25
11099;BME280;12223;42.650;23.364;2022-08-19T09:09:41;94515.84;;;31.08;36.50
11099;BME280;12223;42.650;23.364;2022-08-19T09:12:12;94516.47;;;31.17;36.10
11099;BME280;12223;42.650;23.364;2022-08-19T09:14:46;94511.59;;;31.26;35.84
11099;BME280;12223;42.650;23.364;2022-08-19T09:17:15;94501.13;;;31.12;34.03
11099;BME280;12223;42.650;23.364;2022-08-19T09:19:53;94509.47;;;31.35;33.25
11099;BME280;12223;42.650;23.364;2022-08-19T09:22:20;94506.59;;;31.47;32.66
11099;BME280;12223;42.650;23.364;2022-08-19T09:24:49;94510.50;;;31.66;31.50
11099;BME280;12223;42.650;23.364;2022-08-19T09:27:18;94494.31;;;31.95;31.40
11099;BME280;12223;42.650;23.364;2022-08-19T09:29:46;94504.91;;;32.39;31.02
11099;BME280;12223;42.650;23.364;2022-08-19T09:32:14;94500.31;;;32.43;30.26
11099;BME280;12223;42.650;23.364;2022-08-19T09:34:41;94500.22;;;32.40;28.22
11099;BME280;12223;42.650;23.364;2022-08-19T09:37:08;94491.84;;;32.29;27.95
11099;BME280;12223;42.650;23.364;2022-08-19T09:39:35;94493.13;;;32.35;28.91
11099;BME280;12223;42.650;23.364;2022-08-19T09:42:05;94497.63;;;32.47;29.29
11099;BME280;12223;42.650;23.364;2022-08-19T09:44:36;94497.56;;;32.66;28.65
11099;BME280;12223;42.650;23.364;2022-08-19T09:47:03;94488.88;;;32.83;28.53
11099;BME280;12223;42.650;23.364;2022-08-19T09:49:30;94491.69;;;32.87;28.26
11099;BME280;12223;42.650;23.364;2022-08-19T09:51:57;94499.00;;;33.05;27.20
11099;BME280;12223;42.650;23.364;2022-08-19T09:54:24;94491.38;;;32.92;27.52
11099;BME280;12223;42.650;23.364;2022-08-19T09:56:51;94478.69;;;32.80;27.53
11099;BME280;12223;42.650;23.364;2022-08-19T09:59:20;94485.47;;;33.16;27.13
11099;BME280;12223;42.650;23.364;2022-08-19T10:01:47;94487.84;;;33.18;26.26
11099;BME280;12223;42.650;23.364;2022-08-19T10:04:13;94487.25;;;32.79;27.13
11099;BME280;12223;42.650;23.364;2022-08-19T10:06:40;94478.31;;;32.59;26.73
11099;BME280;12223;42.650;23.364;2022-08-19T10:09:09;94475.81;;;32.27;27.55
11099;BME280;12223;42.650;23.364;2022-08-19T10:11:38;94470.25;;;32.43;28.27
11099;BME280;12223;42.650;23.364;2022-08-19T10:14:06;94467.78;;;32.61;27.43
11099;BME280;12223;42.650;23.364;2022-08-19T10:16:37;94465.91;;;32.65;28.40
11099;BME280;12223;42.650;23.364;2022-08-19T10:19:05;94460.81;;;32.41;28.58
11099;BME280;12223;42.650;23.364;2022-08-19T10:21:33;94466.41;;;32.48;28.27
11099;BME280;12223;42.650;23.364;2022-08-19T10:24:02;94462.91;;;32.24;28.23
11099;BME280;12223;42.650;23.364;2022-08-19T10:26:35;94463.81;;;32.13;28.91
11099;BME280;12223;42.650;23.364;2022-08-19T10:29:03;94457.47;;;32.28;28.81
11099;BME280;12223;42.650;23.364;2022-08-19T10:31:32;94460.63;;;32.53;27.85
11099;BME280;12223;42.650;23.364;2022-08-19T10:34:01;94457.09;;;32.52;27.99
11099;BME280;12223;42.650;23.364;2022-08-19T10:36:30;94445.38;;;32.52;28.36
11099;BME280;12223;42.650;23.364;2022-08-19T10:39:01;94451.53;;;32.03;28.98
11099;BME280;12223;42.650;23.364;2022-08-19T10:41:31;94429.66;;;32.22;28.81
11099;BME280;12223;42.650;23.364;2022-08-19T10:43:59;94441.56;;;32.33;28.61
11099;BME280;12223;42.650;23.364;2022-08-19T10:46:27;94446.03;;;32.45;28.71
11099;BME280;12223;42.650;23.364;2022-08-19T10:48:58;94450.34;;;32.46;28.39
11099;BME280;12223;42.650;23.364;2022-08-19T10:51:26;94447.09;;;32.37;28.48
11099;BME280;12223;42.650;23.364;2022-08-19T10:54:10;94440.25;;;32.50;28.73
11099;BME280;12223;42.650;23.364;2022-08-19T10:56:37;94445.22;;;32.41;28.44
11099;BME280;12223;42.650;23.364;2022-08-19T10:59:20;94435.84;;;32.42;28.04
11099;BME280;12223;42.650;23.364;2022-08-19T11:01:48;94442.28;;;32.53;28.12
11099;BME280;12223;42.650;23.364;2022-08-19T11:04:15;94435.91;;;32.46;28.48
11099;BME280;12223;42.650;23.364;2022-08-19T11:06:44;94440.75;;;32.79;27.72
11099;BME280;12223;42.650;23.364;2022-08-19T11:09:13;94441.56;;;33.09;27.46
11099;BME280;12223;42.650;23.364;2022-08-19T11:11:40;94438.09;;;33.38;26.77
11099;BME280;12223;42.650;23.364;2022-08-19T11:14:08;94427.88;;;33.35;27.65
11099;BME280;12223;42.650;23.364;2022-08-19T11:16:35;94430.97;;;33.34;27.03
11099;BME280;12223;42.650;23.364;2022-08-19T11:19:03;94425.72;;;32.92;27.33
11099;BME280;12223;42.650;23.364;2022-08-19T11:21:32;94432.22;;;33.10;27.36
11099;BME280;12223;42.650;23.364;2022-08-19T11:24:03;94420.38;;;33.29;27.15
11099;BME280;12223;42.650;23.364;2022-08-19T11:26:32;94420.13;;;33.41;28.06
11099;BME280;12223;42.650;23.364;2022-08-19T11:28:59;94431.66;;;33.24;27.51
11099;BME280;12223;42.650;23.364;2022-08-19T11:31:29;94414.66;;;33.14;27.83
11099;BME280;12223;42.650;23.364;2022-08-19T11:33:57;94418.84;;;33.31;28.33
11099;BME280;12223;42.650;23.364;2022-08-19T11:36:25;94416.75;;;33.21;27.75
11099;BME280;12223;42.650;23.364;2022-08-19T11:38:53;94413.59;;;33.19;27.46
11099;BME280;12223;42.650;23.364;2022-08-19T11:41:23;94412.16;;;33.02;27.50
11099;BME280;12223;42.650;23.364;2022-08-19T11:43:50;94402.56;;;33.16;27.58
11099;BME280;12223;42.650;23.364;2022-08-19T11:46:18;94401.06;;;33.18;28.18
11099;BME280;12223;42.650;23.364;2022-08-19T11:48:45;94405.00;;;33.21;28.05
11099;BME280;12223;42.650;23.364;2022-08-19T11:51:15;94407.78;;;32.94;27.91
11099;BME280;12223;42.650;23.364;2022-08-19T11:53:42;94403.47;;;33.20;27.67
11099;BME280;12223;42.650;23.364;2022-08-19T11:56:10;94399.63;;;33.28;27.55
11099;BME280;12223;42.650;23.364;2022-08-19T11:58:38;94407.06;;;33.01;27.63
11099;BME280;12223;42.650;23.364;2022-08-19T12:01:07;94400.09;;;32.77;27.59
11099;BME280;12223;42.650;23.364;2022-08-19T12:03:34;94398.25;;;33.14;27.52
11099;BME280;12223;42.650;23.364;2022-08-19T12:06:04;94389.94;;;33.07;28.13
11099;BME280;12223;42.650;23.364;2022-08-19T12:08:31;94386.03;;;33.35;27.65
11099;BME280;12223;42.650;23.364;2022-08-19T12:10:58;94377.09;;;33.38;27.62
11099;BME280;12223;42.650;23.364;2022-08-19T12:13:26;94384.13;;;33.39;27.59
11099;BME280;12223;42.650;23.364;2022-08-19T12:15:55;94374.81;;;33.47;27.95
11099;BME280;12223;42.650;23.364;2022-08-19T12:18:21;94377.31;;;33.59;28.02
11099;BME280;12223;42.650;23.364;2022-08-19T12:20:50;94379.09;;;33.78;27.61
11099;BME280;12223;42.650;23.364;2022-08-19T12:23:17;94369.97;;;34.04;27.21
11099;BME280;12223;42.650;23.364;2022-08-19T12:25:47;94362.22;;;34.13;26.41
11099;BME280;12223;42.650;23.364;2022-08-19T12:28:15;94365.03;;;34.20;26.66
11099;BME280;12223;42.650;23.364;2022-08-19T12:30:42;94360.06;;;34.36;26.64
11099;BME280;12223;42.650;23.364;2022-08-19T12:33:10;94329.81;;;34.22;26.63
11099;BME280;12223;42.650;23.364;2022-08-19T12:35:39;94361.78;;;34.55;26.33
11099;BME280;12223;42.650;23.364;2022-08-19T12:38:06;94348.13;;;34.62;25.92
11099;BME280;12223;42.650;23.364;2022-08-19T12:40:33;94343.00;;;34.60;26.21
11099;BME280;12223;42.650;23.364;2022-08-19T12:43:00;94344.28;;;34.74;25.88
11099;BME280;12223;42.650;23.364;2022-08-19T12:45:27;94338.84;;;34.81;25.83
11099;BME280;12223;42.650;23.364;2022-08-19T12:47:54;94338.94;;;34.95;25.94
11099;BME280;12223;42.650;23.364;2022-08-19T12:50:22;94340.88;;;34.98;25.97
11099;BME280;12223;42.650;23.364;2022-08-19T12:52:49;94340.56;;;35.10;25.44
11099;BME280;12223;42.650;23.364;2022-08-19T12:55:15;94337.13;;;35.20;25.72
11099;BME280;12223;42.650;23.364;2022-08-19T12:57:44;94339.47;;;35.25;25.31
11099;BME280;12223;42.650;23.364;2022-08-19T13:00:14;94326.13;;;35.20;25.31